createdAt,value
2018-05-25T00:02:27.070Z,37.90
2018-05-25T00:04:54.446Z,36.20
2018-05-25T00:07:22.015Z,35.50
2018-05-25T00:09:49.452Z,37.53
2018-05-25T00:12:16.877Z,37.40
2018-05-25T00:14:44.309Z,38.07
2018-05-25T00:17:11.718Z,36.27
2018-05-25T00:19:39.137Z,37.63
2018-05-25T00:22:06.527Z,38.80
2018-05-25T00:24:33.971Z,35.53
2018-05-25T00:27:01.388Z,36.23
2018-05-25T00:29:28.891Z,34.57
2018-05-25T00:31:56.284Z,35.40
2018-05-25T00:34:23.725Z,36.10
2018-05-25T00:36:51.135Z,36.10
2018-05-25T00:39:18.572Z,35.90
2018-05-25T00:41:45.976Z,36.17
2018-05-25T00:44:13.992Z,35.93
2018-05-25T00:46:41.397Z,37.17
2018-05-25T00:49:08.885Z,35.93
2018-05-25T00:51:36.348Z,38.77
2018-05-25T00:54:03.746Z,35.50
2018-05-25T00:56:31.162Z,35.60
2018-05-25T00:58:58.575Z,37.07
2018-05-25T01:01:26.110Z,37.20
2018-05-25T01:03:53.524Z,35.67
2018-05-25T01:06:20.931Z,38.17
2018-05-25T01:08:48.478Z,38.07
2018-05-25T01:11:15.933Z,39.53
2018-05-25T01:13:43.392Z,39.70
2018-05-25T01:16:10.917Z,37.20
2018-05-25T01:18:38.332Z,36.70
2018-05-25T01:21:05.808Z,38.03
2018-05-25T01:23:33.261Z,38.90
2018-05-25T01:26:00.697Z,38.90
2018-05-25T01:28:28.127Z,39.23
2018-05-25T01:30:55.547Z,38.13
2018-05-25T01:33:23.032Z,39.30
2018-05-25T01:35:50.438Z,36.40
2018-05-25T01:38:17.859Z,37.23
2018-05-25T01:40:45.332Z,39.00
2018-05-25T01:43:12.789Z,37.57
2018-05-25T01:45:40.236Z,36.60
2018-05-25T01:48:07.680Z,39.90
2018-05-25T01:50:35.116Z,40.70
2018-05-25T01:53:02.556Z,41.30
2018-05-25T01:55:29.981Z,40.87
2018-05-25T01:57:57.507Z,42.47
2018-05-25T02:00:25.036Z,42.00
2018-05-25T02:02:52.509Z,42.03
2018-05-25T02:05:20.029Z,42.80
2018-05-25T02:07:47.467Z,40.70
2018-05-25T02:10:14.939Z,39.83
2018-05-25T02:12:42.455Z,43.90
2018-05-25T02:15:09.890Z,45.10
2018-05-25T02:17:37.346Z,41.87
2018-05-25T02:20:04.767Z,44.23
2018-05-25T02:22:32.280Z,45.20
2018-05-25T02:24:59.664Z,43.63
2018-05-25T02:27:27.090Z,44.90
2018-05-25T02:29:54.591Z,45.37
2018-05-25T02:32:22.014Z,44.60
2018-05-25T02:34:49.613Z,45.43
2018-05-25T02:37:17.003Z,47.67
2018-05-25T02:39:44.475Z,46.27
2018-05-25T02:42:11.888Z,46.13
2018-05-25T02:44:39.303Z,46.73
2018-05-25T02:47:06.733Z,43.73
2018-05-25T02:49:34.571Z,46.13
2018-05-25T02:52:02.007Z,45.87
2018-05-25T02:54:29.495Z,41.87
2018-05-25T02:56:56.912Z,42.47
2018-05-25T02:59:24.350Z,41.13
2018-05-25T03:01:51.853Z,42.30
2018-05-25T03:04:19.264Z,40.73
2018-05-25T03:06:46.696Z,42.00
2018-05-25T03:09:14.108Z,41.80
2018-05-25T03:11:41.545Z,44.10
2018-05-25T03:14:08.988Z,42.67
2018-05-25T03:16:36.403Z,42.90
2018-05-25T03:19:03.914Z,43.63
2018-05-25T03:21:31.344Z,43.27
2018-05-25T03:23:58.837Z,42.60
2018-05-25T03:26:26.436Z,43.97
2018-05-25T03:28:53.907Z,43.40
2018-05-25T03:31:21.328Z,44.30
2018-05-25T03:33:48.768Z,44.33
2018-05-25T03:36:16.179Z,42.10
2018-05-25T03:38:43.622Z,41.80
2018-05-25T03:41:11.037Z,41.50
2018-05-25T03:43:38.642Z,40.00
2018-05-25T03:46:06.086Z,40.40
2018-05-25T03:48:33.511Z,40.97
2018-05-25T03:51:00.947Z,38.43
2018-05-25T03:53:28.388Z,37.50
2018-05-25T03:55:55.791Z,39.23
2018-05-25T03:58:34.917Z,36.63
2018-05-25T04:01:14.042Z,36.13
2018-05-25T04:03:41.470Z,35.57
2018-05-25T04:06:08.928Z,34.83
2018-05-25T04:08:36.368Z,34.17
2018-05-25T04:11:03.767Z,34.30
2018-05-25T04:13:31.208Z,33.80
2018-05-25T04:15:58.627Z,33.80
2018-05-25T04:18:26.055Z,32.50
2018-05-25T04:20:53.492Z,33.30
2018-05-25T04:23:20.947Z,32.10
2018-05-25T04:25:48.383Z,32.30
2018-05-25T04:28:15.779Z,32.10
2018-05-25T04:30:43.233Z,31.87
2018-05-25T04:33:10.638Z,32.23
2018-05-25T04:35:38.102Z,33.50
2018-05-25T04:38:05.491Z,31.93
2018-05-25T04:40:33.229Z,31.57
2018-05-25T04:43:00.632Z,30.13
2018-05-25T04:45:28.075Z,31.30
2018-05-25T04:47:55.492Z,28.87
2018-05-25T04:50:22.935Z,27.70
2018-05-25T04:52:50.356Z,29.80
2018-05-25T04:55:17.786Z,27.60
2018-05-25T04:57:45.188Z,28.40
2018-05-25T05:00:12.635Z,28.00
2018-05-25T05:02:40.069Z,25.77
2018-05-25T05:05:07.596Z,28.30
2018-05-25T05:07:35.056Z,28.80
2018-05-25T05:10:07.358Z,27.60
2018-05-25T05:12:34.905Z,26.63
2018-05-25T05:15:02.318Z,26.80
2018-05-25T05:17:29.777Z,27.53
2018-05-25T05:19:57.200Z,26.97
2018-05-25T05:22:24.642Z,27.50
2018-05-25T05:24:52.063Z,27.53
2018-05-25T05:27:19.505Z,26.63
2018-05-25T05:29:46.928Z,27.07
2018-05-25T05:32:14.380Z,26.50
2018-05-25T05:34:41.796Z,26.20
2018-05-25T05:37:09.234Z,25.13
2018-05-25T05:39:36.660Z,26.80
2018-05-25T05:42:04.126Z,26.60
2018-05-25T05:44:31.573Z,28.50
2018-05-25T05:46:59.100Z,29.17
2018-05-25T05:49:26.530Z,27.87
2018-05-25T05:51:53.940Z,31.30
2018-05-25T05:54:21.380Z,31.17
2018-05-25T05:56:49.010Z,30.80
2018-05-25T05:59:16.454Z,33.97
2018-05-25T06:01:43.850Z,32.93
2018-05-25T06:04:11.317Z,34.10
2018-05-25T06:06:38.766Z,34.03
2018-05-25T06:09:06.334Z,33.60
2018-05-25T06:11:33.831Z,35.60
2018-05-25T06:14:01.361Z,37.87
2018-05-25T06:16:28.753Z,36.33
2018-05-25T06:18:56.161Z,37.30
2018-05-25T06:21:23.590Z,38.80
2018-05-25T06:23:51.057Z,45.10
2018-05-25T06:26:18.520Z,38.90
2018-05-25T06:28:45.977Z,41.87
2018-05-25T06:31:13.411Z,42.97
2018-05-25T06:33:40.926Z,43.40
2018-05-25T06:36:08.350Z,43.70
2018-05-25T06:38:35.776Z,43.10
2018-05-25T06:41:03.215Z,39.30
2018-05-25T06:43:30.637Z,38.37
2018-05-25T06:45:58.095Z,37.50
2018-05-25T06:48:25.522Z,36.67
2018-05-25T06:50:52.923Z,37.17
2018-05-25T06:53:20.384Z,37.70
2018-05-25T06:55:47.816Z,36.03
2018-05-25T06:58:15.309Z,36.17
2018-05-25T07:00:42.778Z,37.40
2018-05-25T07:03:10.400Z,35.00
2018-05-25T07:05:37.808Z,35.43
2018-05-25T07:08:05.313Z,34.60
2018-05-25T07:10:32.785Z,35.77
2018-05-25T07:13:00.253Z,36.30
2018-05-25T07:15:27.720Z,38.30
2018-05-25T07:17:55.240Z,36.80
2018-05-25T07:20:22.689Z,36.27
2018-05-25T07:22:50.368Z,37.37
2018-05-25T07:25:17.781Z,35.23
2018-05-25T07:27:45.224Z,35.07
2018-05-25T07:30:13.036Z,36.77
2018-05-25T07:32:40.484Z,35.20
2018-05-25T07:35:07.958Z,35.40
2018-05-25T07:37:35.391Z,37.73
2018-05-25T07:40:02.790Z,36.67
2018-05-25T07:42:30.259Z,38.83
2018-05-25T07:44:57.701Z,40.10
2018-05-25T07:47:25.132Z,38.23
2018-05-25T07:49:52.569Z,38.30
2018-05-25T07:52:19.975Z,38.10
2018-05-25T07:54:47.424Z,40.73
2018-05-25T07:57:15.011Z,41.10
2018-05-25T07:59:42.420Z,41.90
2018-05-25T08:02:09.863Z,41.80
2018-05-25T08:04:37.306Z,44.40
2018-05-25T08:07:04.746Z,42.93
2018-05-25T08:09:32.187Z,43.77
2018-05-25T08:11:59.664Z,49.07
2018-05-25T08:14:27.125Z,42.40
2018-05-25T08:16:54.537Z,45.20
2018-05-25T08:19:21.988Z,44.40
2018-05-25T08:21:49.459Z,51.73
2018-05-25T08:24:16.847Z,50.80
2018-05-25T08:26:44.319Z,46.90
2018-05-25T08:29:11.724Z,45.27
2018-05-25T08:31:39.210Z,46.07
2018-05-25T08:34:06.649Z,43.20
2018-05-25T08:36:34.098Z,45.07
2018-05-25T08:39:01.531Z,50.63
2018-05-25T08:41:28.985Z,45.80
2018-05-25T08:43:56.453Z,44.77
2018-05-25T08:46:23.889Z,44.37
2018-05-25T08:48:51.385Z,43.50
2018-05-25T08:51:18.832Z,41.30
2018-05-25T08:53:46.306Z,44.87
2018-05-25T08:56:13.804Z,45.73
2018-05-25T08:58:41.238Z,44.90
2018-05-25T09:01:08.660Z,43.70
2018-05-25T09:03:36.059Z,43.57
2018-05-25T09:06:03.534Z,43.27
2018-05-25T09:08:30.952Z,39.90
2018-05-25T09:10:58.374Z,40.07
2018-05-25T09:13:25.829Z,42.00
2018-05-25T09:15:53.475Z,41.80
2018-05-25T09:18:20.937Z,42.60
2018-05-25T09:20:48.342Z,42.30
2018-05-25T09:23:15.783Z,40.80
2018-05-25T09:25:43.187Z,40.90
2018-05-25T09:28:10.604Z,42.37
2018-05-25T09:30:38.026Z,40.43
2018-05-25T09:33:05.481Z,39.83
2018-05-25T09:35:32.893Z,39.10
2018-05-25T09:38:00.325Z,39.73
2018-05-25T09:40:28.558Z,36.10
2018-05-25T09:42:55.973Z,37.37
2018-05-25T09:45:23.420Z,37.70
2018-05-25T09:47:50.828Z,34.80
2018-05-25T09:50:18.286Z,37.57
2018-05-25T09:52:46.625Z,37.10
2018-05-25T09:55:14.062Z,33.23
2018-05-25T09:57:53.119Z,32.77
2018-05-25T10:00:20.638Z,33.17
2018-05-25T10:02:48.060Z,34.73
2018-05-25T10:05:15.536Z,33.53
2018-05-25T10:07:42.945Z,28.73
2018-05-25T10:10:10.415Z,29.23
2018-05-25T10:12:37.871Z,29.20
2018-05-25T10:15:05.300Z,28.70
2018-05-25T10:17:32.703Z,31.90
2018-05-25T10:20:00.158Z,31.83
2018-05-25T10:22:27.778Z,29.17
2018-05-25T10:24:55.222Z,28.27
2018-05-25T10:27:22.649Z,29.87
2018-05-25T10:29:50.065Z,29.20
2018-05-25T10:32:17.491Z,32.90
2018-05-25T10:34:44.988Z,29.33
2018-05-25T10:37:12.755Z,30.27
2018-05-25T10:39:40.224Z,29.33
2018-05-25T10:42:07.771Z,31.10
2018-05-25T10:44:35.186Z,31.47
2018-05-25T10:47:02.641Z,31.53
2018-05-25T10:49:31.003Z,30.60
2018-05-25T10:51:59.065Z,29.97
2018-05-25T10:54:26.508Z,27.40
2018-05-25T10:56:53.939Z,25.97
2018-05-25T10:59:21.386Z,26.27
2018-05-25T11:01:48.848Z,25.20
2018-05-25T11:04:16.285Z,24.90
2018-05-25T11:06:43.680Z,23.33
2018-05-25T11:09:11.141Z,22.83
2018-05-25T11:11:38.556Z,22.00
2018-05-25T11:14:06.054Z,26.13
2018-05-25T11:16:33.812Z,22.70
2018-05-25T11:19:01.256Z,23.83
2018-05-25T11:21:28.775Z,25.50
2018-05-25T11:23:56.255Z,26.20
2018-05-25T11:26:23.776Z,24.50
2018-05-25T11:28:51.215Z,23.37
2018-05-25T11:31:19.662Z,22.13
2018-05-25T11:33:47.090Z,19.60
2018-05-25T11:36:14.502Z,17.83
2018-05-25T11:38:41.944Z,22.33
2018-05-25T11:41:09.400Z,20.20
2018-05-25T11:43:46.636Z,18.83
2018-05-25T11:46:14.501Z,17.40
2018-05-25T11:48:41.932Z,16.70
2018-05-25T11:51:09.393Z,17.03
2018-05-25T11:53:36.821Z,14.93
2018-05-25T11:56:04.269Z,18.30
2018-05-25T11:58:31.666Z,18.87
2018-05-25T12:00:59.121Z,18.83
2018-05-25T12:03:26.560Z,18.00
2018-05-25T12:05:54.001Z,18.17
2018-05-25T12:08:22.194Z,14.97
2018-05-25T12:10:49.643Z,14.63
2018-05-25T12:13:17.091Z,16.07
2018-05-25T12:15:44.536Z,12.80
2018-05-25T12:18:11.954Z,14.90
2018-05-25T12:20:39.399Z,13.73
2018-05-25T12:23:07.724Z,13.07
2018-05-25T12:25:35.163Z,14.13
2018-05-25T12:28:02.771Z,13.47
2018-05-25T12:30:30.244Z,12.77
2018-05-25T12:32:57.707Z,13.57
2018-05-25T12:35:46.908Z,12.67
2018-05-25T12:38:14.579Z,11.63
2018-05-25T12:40:42.090Z,9.97
2018-05-25T12:43:09.541Z,11.30
2018-05-25T12:45:37.025Z,11.90
2018-05-25T12:48:04.941Z,12.77
2018-05-25T12:50:32.821Z,10.60
2018-05-25T12:53:00.272Z,10.93
2018-05-25T12:55:28.540Z,9.27
2018-05-25T12:57:57.230Z,8.13
2018-05-25T13:00:24.620Z,9.03
2018-05-25T13:02:53.821Z,8.20
2018-05-25T13:05:21.268Z,8.30
2018-05-25T13:07:48.724Z,8.07
2018-05-25T13:10:16.167Z,8.63
2018-05-25T13:12:43.610Z,8.20
2018-05-25T13:15:11.012Z,8.90
2018-05-25T13:17:38.502Z,8.30
2018-05-25T13:20:05.951Z,8.50
2018-05-25T13:22:33.382Z,8.00
2018-05-25T13:25:00.783Z,7.97
2018-05-25T13:27:28.240Z,8.30
2018-05-25T13:29:55.674Z,8.53
2018-05-25T13:32:23.094Z,9.43
2018-05-25T13:34:50.554Z,8.00
2018-05-25T13:37:17.982Z,6.80
2018-05-25T13:39:45.411Z,7.00
2018-05-25T13:42:12.817Z,8.10
2018-05-25T13:44:40.288Z,9.00
2018-05-25T13:47:07.692Z,9.63
2018-05-25T13:49:35.156Z,8.70
2018-05-25T13:52:02.609Z,9.07
2018-05-25T13:54:30.067Z,8.47
2018-05-25T13:56:57.476Z,9.00
2018-05-25T13:59:24.909Z,8.80
2018-05-25T14:01:57.840Z,8.23
2018-05-25T14:04:25.364Z,8.60
2018-05-25T14:06:52.870Z,8.63
2018-05-25T14:09:20.298Z,8.63
2018-05-25T14:11:47.822Z,8.07
2018-05-25T14:14:15.274Z,8.50
2018-05-25T14:16:42.745Z,8.83
2018-05-25T14:19:10.215Z,7.67
2018-05-25T14:21:37.644Z,8.40
2018-05-25T14:24:05.338Z,8.40
2018-05-25T14:26:32.785Z,8.37
2018-05-25T14:29:02.041Z,8.97
2018-05-25T14:31:29.629Z,8.67
2018-05-25T14:33:57.162Z,7.73
2018-05-25T14:36:24.616Z,8.10
2018-05-25T14:38:52.040Z,8.93
2018-05-25T14:41:19.707Z,8.00
2018-05-25T14:43:47.266Z,7.40
2018-05-25T14:46:14.693Z,7.77
2018-05-25T14:48:42.138Z,7.47
2018-05-25T14:51:09.633Z,7.30
2018-05-25T14:53:37.058Z,6.93
2018-05-25T14:56:04.505Z,6.70
2018-05-25T14:58:31.918Z,7.13
2018-05-25T15:00:59.384Z,7.03
2018-05-25T15:03:26.960Z,7.43
2018-05-25T15:05:54.419Z,6.30
2018-05-25T15:08:21.836Z,6.27
2018-05-25T15:10:49.252Z,5.90
2018-05-25T15:13:17.143Z,5.80
2018-05-25T15:15:44.603Z,5.90
2018-05-25T15:18:12.027Z,5.30
2018-05-25T15:20:39.469Z,5.37
2018-05-25T15:23:06.882Z,5.33
2018-05-25T15:25:34.297Z,5.30
2018-05-25T15:28:01.753Z,5.17
2018-05-25T15:30:29.165Z,5.40
2018-05-25T15:32:56.769Z,5.43
2018-05-25T15:35:24.473Z,5.57
2018-05-25T15:37:51.985Z,4.87
2018-05-25T15:40:19.424Z,5.20
2018-05-25T15:42:46.871Z,5.43
2018-05-25T15:45:14.281Z,5.30
2018-05-25T15:47:41.844Z,5.53
2018-05-25T15:50:10.037Z,5.17
2018-05-25T15:52:37.488Z,5.20
2018-05-25T15:55:05.012Z,5.40
2018-05-25T15:57:36.222Z,5.00
2018-05-25T16:00:03.611Z,5.20
2018-05-25T16:02:31.042Z,4.93
2018-05-25T16:04:58.473Z,5.00
2018-05-25T16:07:26.781Z,5.37
2018-05-25T16:09:54.372Z,5.10
2018-05-25T16:12:21.798Z,4.67
2018-05-25T16:17:22.638Z,5.37
2018-05-25T16:19:50.120Z,6.07
2018-05-25T16:22:17.478Z,5.33
2018-05-25T16:24:44.895Z,4.43
2018-05-25T16:27:12.330Z,5.70
2018-05-25T16:29:39.809Z,5.80
2018-05-25T16:32:07.200Z,4.70
2018-05-25T16:34:34.634Z,5.30
2018-05-25T16:37:02.035Z,5.20
2018-05-25T16:39:29.462Z,5.10
2018-05-25T16:41:56.895Z,4.53
2018-05-25T16:44:24.339Z,4.07
2018-05-25T16:46:51.742Z,4.37
2018-05-25T16:49:19.279Z,6.03
2018-05-25T16:51:46.734Z,4.20
2018-05-25T16:54:14.192Z,4.07
2018-05-25T16:56:41.644Z,4.40
2018-05-25T16:59:09.053Z,4.07
2018-05-25T17:01:36.455Z,4.50
2018-05-25T17:04:03.893Z,4.27
2018-05-25T17:06:31.306Z,4.13
2018-05-25T17:08:58.778Z,5.30
2018-05-25T17:11:26.244Z,5.70
2018-05-25T17:13:53.651Z,6.17
2018-05-25T17:16:21.103Z,4.27
2018-05-25T17:18:48.526Z,4.03
2018-05-25T17:21:15.980Z,3.50
2018-05-25T17:23:43.505Z,3.73
2018-05-25T17:26:10.985Z,4.00
2018-05-25T17:28:38.479Z,4.20
2018-05-25T17:31:05.988Z,4.60
2018-05-25T17:33:33.548Z,4.00
2018-05-25T17:36:01.045Z,3.80
2018-05-25T17:38:28.451Z,4.73
2018-05-25T17:40:55.923Z,4.43
2018-05-25T17:43:23.350Z,3.77
2018-05-25T17:45:50.784Z,3.63
2018-05-25T17:48:18.176Z,4.20
2018-05-25T17:50:45.690Z,4.10
2018-05-25T17:53:13.202Z,4.47
2018-05-25T17:55:40.668Z,4.97
2018-05-25T17:58:08.998Z,3.97
2018-05-25T18:00:36.548Z,5.10
2018-05-25T18:03:04.002Z,4.87
2018-05-25T18:05:31.458Z,5.30
2018-05-25T18:07:59.027Z,5.13
2018-05-25T18:10:26.843Z,4.83
2018-05-25T18:12:54.560Z,5.20
2018-05-25T18:15:21.990Z,4.60
2018-05-25T18:17:49.467Z,4.80
2018-05-25T18:20:17.193Z,5.70
2018-05-25T18:22:46.340Z,5.10
2018-05-25T18:25:13.745Z,5.10
2018-05-25T18:27:41.230Z,5.10
2018-05-25T18:30:08.963Z,5.23
2018-05-25T18:32:36.495Z,5.90
2018-05-25T18:35:03.877Z,5.57
2018-05-25T18:37:31.405Z,5.67
2018-05-25T18:39:58.848Z,5.37
2018-05-25T18:42:26.273Z,5.30
2018-05-25T18:44:53.727Z,5.37
2018-05-25T18:47:21.194Z,5.77
2018-05-25T18:49:48.882Z,4.40
2018-05-25T18:52:16.344Z,5.73
2018-05-25T18:54:45.435Z,5.67
2018-05-25T18:57:12.839Z,5.33
2018-05-25T18:59:40.340Z,5.97
2018-05-25T19:02:07.740Z,6.17
2018-05-25T19:04:35.189Z,6.53
2018-05-25T19:07:02.652Z,5.87
2018-05-25T19:09:30.112Z,5.87
2018-05-25T19:11:57.545Z,5.20
2018-05-25T19:14:24.979Z,6.43
2018-05-25T19:16:52.389Z,6.03
2018-05-25T19:19:19.851Z,5.87
2018-05-25T19:21:47.350Z,4.70
2018-05-25T19:24:14.835Z,5.60
2018-05-25T19:26:42.240Z,5.00
2018-05-25T19:29:09.666Z,5.73
2018-05-25T19:31:37.094Z,5.27
2018-05-25T19:34:04.680Z,6.50
2018-05-25T19:36:32.144Z,6.00
2018-05-25T19:39:00.883Z,5.60
2018-05-25T19:41:28.309Z,6.00
2018-05-25T19:43:55.734Z,5.80
2018-05-25T19:46:26.323Z,6.20
2018-05-25T19:48:54.872Z,6.10
2018-05-25T19:51:22.315Z,5.83
2018-05-25T19:53:49.967Z,6.13
2018-05-25T19:56:17.460Z,6.30
2018-05-25T19:58:44.916Z,6.07
2018-05-25T20:01:12.493Z,7.20
2018-05-25T20:03:39.948Z,6.50
2018-05-25T20:06:07.381Z,6.87
2018-05-25T20:08:36.024Z,6.33
2018-05-25T20:11:03.516Z,7.37
2018-05-25T20:13:30.974Z,8.77
2018-05-25T20:15:58.498Z,7.17
2018-05-25T20:18:25.947Z,7.80
2018-05-25T20:20:53.521Z,7.60
2018-05-25T20:23:21.019Z,7.33
2018-05-25T20:25:48.475Z,6.80
2018-05-25T20:28:16.019Z,8.17
2018-05-25T20:30:43.442Z,7.40
2018-05-25T20:33:10.872Z,7.30
2018-05-25T20:35:39.667Z,6.07
2018-05-25T20:38:07.125Z,7.13
2018-05-25T20:40:34.551Z,7.20
2018-05-25T20:43:02.363Z,7.13
2018-05-25T20:45:30.653Z,7.90
2018-05-25T20:47:58.069Z,8.60
2018-05-25T20:50:25.678Z,8.90
2018-05-25T20:52:53.947Z,9.00
2018-05-25T20:55:21.618Z,8.53
2018-05-25T20:57:49.066Z,9.70
2018-05-25T21:00:16.575Z,7.37
2018-05-25T21:02:45.569Z,6.90
2018-05-25T21:05:12.958Z,6.93
2018-05-25T21:07:40.885Z,7.00
2018-05-25T21:10:08.596Z,8.30
2018-05-25T21:12:37.076Z,7.93
2018-05-25T21:15:04.765Z,9.17
2018-05-25T21:17:32.493Z,9.07
2018-05-25T21:20:00.231Z,9.60
2018-05-25T21:22:31.384Z,11.57
2018-05-25T21:24:58.819Z,11.10
2018-05-25T21:27:26.248Z,7.57
2018-05-25T21:29:53.712Z,6.13
2018-05-25T21:32:21.128Z,7.03
2018-05-25T21:34:49.315Z,7.23
2018-05-25T21:37:16.801Z,7.97
2018-05-25T21:39:44.286Z,9.23
2018-05-25T21:42:11.694Z,8.13
2018-05-25T21:44:39.156Z,8.67
2018-05-25T22:00:01.910Z,6.50
2018-05-25T22:02:29.425Z,6.67
2018-05-25T22:04:56.888Z,6.00
2018-05-25T22:07:24.320Z,6.83
2018-05-25T22:09:51.777Z,6.27
2018-05-25T22:12:19.192Z,6.87
2018-05-25T22:14:46.647Z,6.80
2018-05-25T22:17:14.064Z,7.47
2018-05-25T22:19:41.503Z,6.43
2018-05-25T22:22:08.910Z,6.30
2018-05-25T22:24:36.350Z,6.87
2018-05-25T22:27:03.812Z,7.20
2018-05-25T22:29:32.437Z,6.57
2018-05-25T22:31:59.832Z,5.87
2018-05-25T22:34:27.318Z,5.87
2018-05-25T22:36:54.736Z,6.23
2018-05-25T22:39:22.182Z,7.10
2018-05-25T22:41:57.133Z,6.80
2018-05-25T22:44:36.177Z,6.40
2018-05-25T22:47:15.417Z,6.07
2018-05-25T22:49:54.492Z,7.07
2018-05-25T22:52:27.004Z,7.40
2018-05-25T22:54:57.361Z,8.77
2018-05-25T22:57:24.807Z,7.40
2018-05-25T22:59:52.271Z,7.47
2018-05-25T23:02:19.707Z,7.37
2018-05-25T23:04:47.111Z,7.40
2018-05-25T23:07:14.529Z,8.13
2018-05-25T23:09:41.957Z,7.73
2018-05-25T23:12:12.390Z,7.27
2018-05-25T23:14:39.832Z,7.80
2018-05-25T23:17:07.263Z,7.63
2018-05-25T23:19:34.723Z,8.60
2018-05-25T23:22:02.134Z,8.13
2018-05-25T23:24:29.548Z,8.17
2018-05-25T23:26:56.996Z,8.30
2018-05-25T23:29:24.412Z,8.37
2018-05-25T23:31:51.843Z,7.70
2018-05-25T23:34:19.276Z,7.90
2018-05-25T23:36:46.762Z,8.03
2018-05-25T23:39:14.191Z,8.00
2018-05-25T23:41:41.600Z,7.50
2018-05-25T23:44:09.021Z,8.10
2018-05-25T23:46:36.430Z,8.00
2018-05-25T23:49:05.705Z,8.90
2018-05-25T23:51:33.119Z,8.33
2018-05-25T23:54:00.647Z,7.57
2018-05-25T23:56:28.098Z,8.20
2018-05-25T23:58:55.521Z,7.60
